Home Team Position History
You can show your support by sponsoring this page for $50.  
Your ad/message will appear in this space for one year.  
Thank you for your support!       Team History Index Oakland Athletics
         
          Shortstop
             
Pos St All- Other Shortstop Fielding Statistics Pos St Batting Statistics as Shortstop Win Shares Pos St
Year Rank Rank Name HOF MVP Star Rookie GG SS Team Stdg Bats Age Pos Games PO Assts Err DP F Pct. Year Rank Rank Name At Bats Hits 2B 3B HR Runs RBI BB IBB SO HP SH SF SB CS GDP BA OBA SA OPS RC B WS F WS T WS BWS/G FWS/G TWS/G Adj WSQ Year Rank Rank Name
1901 7 7 Joe Dolan     PHI 4 U 28 3B   61 88 223 42 30 .881   1901 7 7 Joe Dolan 210 45 13 1 1 31 24 16 3 4 2 .214 .279 .300 .579 22   0.9 2.8 3.7 .015 .046 .061 2.54 1901 7 7 Joe Dolan
1901 9 Bones Ely     PHI 4 R 38 NL-SS   45 85 156 23 19 .913   1901 9 Bones Ely 171 37 6 2 0 11 16 3 0 8 6 .216 .230 .275 .505 12   - 2.0 2.0 .000 .044 .044 1.18 1901 9 Bones Ely
         
1902 6 6 Monte Cross     PHI 1 R 32   137 305 396 45 36 .940   1902 6 6 Monte Cross 497 115 22 2 3 72 59 32 8 22 17 .231 .289 .302 .591 53   2.9 6.6 9.5 .021 .048 .069 6.97 1902 6 6 Monte Cross
         
1903 3 2 Monte Cross     PHI 2 R 33   137 305 396 45 36 .940   1903 3 2 Monte Cross 467 115 21 2 3 44 45 49 6 12 31 .246 .326 .319 .645 63   10.2 10.0 20.2 .074 .073 .147 20.70 1903 3 2 Monte Cross
         
1904 6 5 Monte Cross     PHI 5 R 34   153 276 424 47 26 .937   1904 6 5 Monte Cross 503 95 23 4 1 33 38 46 7 17 19 .189 .266 .256 .522 40   3.6 6.0 9.6 .024 .039 .063 6.21 1904 6 5 Monte Cross
         
1905 10 8 John Knight   R   PHI 1 R 19   81 143 188 39 9 .895   1905 10 8 John Knight 317 64 12 1 3 27 28 9 1 11 4 .202 .226 .274 .500 19   - 2.4 2.4 .000 .030 .030 1.19 1905 10 8 John Knight
1905 6 Monte Cross     PHI 1 R 35   76 159 195 27 22 .929   1905 6 Monte Cross 246 65 17 2 0 27 23 19 6 23 8 .264 .332 .350 .682 31   5.3 3.1 8.4 .070 .041 .111 8.05 1905 6 Monte Cross
         
1906 6 6 Monte Cross     PHI 4 R 36   134 305 311 47 48 .929   1906 6 6 Monte Cross 445 89 23 3 1 32 40 50 7 23 22 .200 .291 .272 .563 43   6.9 3.1 10.0 .051 .023 .075 6.91 1906 6 6 Monte Cross
         
1907 6 6 Simon Nicholls   R   PHI 2 L 24 2B   82 178 258 33 12 .930   1907 6 6 Simon Nicholls 307 93 8 1 0 50 15 16 1 23 9 .303 .340 .336 .676 37   6.7 3.1 9.8 .082 .038 .120 9.58 1907 6 6 Simon Nicholls
1907 7 Monte Cross     PHI 2 R 37   74 169 226 19 17 .954   1907 7 Monte Cross 248 51 9 5 0 37 18 39 1 13 17 .206 .316 .282 .598 30   5.6 3.6 9.2 .076 .049 .124 9.18 1907 7 Monte Cross
         
1908 9 8 Simon Nicholls     PHI 6 L 25 2B   120 221 370 56 26 .913   1908 9 8 Simon Nicholls 440 95 14 2 3 46 25 28 1 25 11 .216 .264 .277 .541 38   3.4 4.2 7.6 .028 .035 .063 5.57 1908 9 8 Simon Nicholls
1908 10 Eddie Collins BBW   R   PHI 6 L 21 2B   28 60 61 10 7 .924   1908 10 Eddie Collins 109 30 6 2 0 13 13 5 1 5 3 .275 .313 .367 .680 15   3.0 1.0 4.0 .107 .036 .143 4.40 1908 10 Eddie Collins
         
1909 5 5 Jack Barry     PHI 2 R 22   124 196 351 43 40 .927   1909 5 5 Jack Barry 409 88 11 2 1 56 23 44 10 28 17 .215 .307 .259 .566 39   5.9 4.9 10.8 .048 .040 .087 8.95 1909 5 5 Jack Barry
         
1910 3 3 Jack Barry     PHI 1 R 23   145 279 406 63 54 .916   1910 3 3 Jack Barry 487 126 19 5 3 64 60 52 5 22 14 .259 .336 .337 .673 62   13.2 5.4 18.6 .091 .037 .128 18.31 1910 3 3 Jack Barry
         
1911 2 2 Jack Barry T18     PHI 1 R 24   127 268 384 39 49 .944   1911 2 2 Jack Barry 442 117 18 7 1 73 63 38 7 27 30 .265 .333 .344 .677 63   10.1 6.2 16.3 .080 .049 .128 18.35 1911 2 2 Jack Barry
1911 8 Stuffy McInnis T22   R   PHI 1 R 20 1B   24 57 46 18 3 .851   1911 8 Stuffy McInnis 93 30 4 2 1 15 15 5 1 4 5 .323 .364 .441 .805 16   3.2 1.0 4.2 .133 .042 .175 5.53 1911 8 Stuffy McInnis
         
1912 3 3 Jack Barry T14     PHI 3 R 25   139 238 438 55 55 .925   1912 3 3 Jack Barry 483 126 19 9 0 75 55 47 7 25 22 .261 .335 .337 .672 65   9.9 6.0 15.9 .071 .043 .114 16.75 1912 3 3 Jack Barry
         
1913 2 2 Jack Barry T9     PHI 1 R 26   134 248 403 32 60 .953   1913 2 2 Jack Barry 455 125 20 6 3 62 85 44 32 8 28 15 .275 .349 .365 .714 68   14.2 5.4 19.6 .106 .040 .146 22.34 1913 2 2 Jack Barry
         
1914 2 2 Jack Barry T16     PHI 1 R 27   140 244 447 39 61 .947   1914 2 2 Jack Barry 467 113 12 0 0 57 42 53 34 4 31 22 13 .242 .324 .268 .592 52   8.9 8.6 17.5 .064 .061 .125 19.37 1914 2 2 Jack Barry
         
1915 10 8 Larry Kopf   R   PHI 8 B 24 3B   74 152 205 31 24 .920   1915 10 8 Larry Kopf 242 55 6 1 1 24 21 26 28 6 6 3 6 .227 .318 .273 .591 23   3.1 0.5 3.6 .042 .007 .049 2.50 1915 10 8 Larry Kopf
1915 7 Jack Barry     PHI 8 R 28 2B   54 106 150 13 21 .952   1915 7 Jack Barry 194 43 6 2 0 16 15 15 9 2 6 6 5 .222 .284 .273 .557 16   2.7 3.0 5.7 .050 .056 .106 5.83 1915 7 Jack Barry
         
1916 6 6 Whitey Witt   R   PHI 8 L 20   142 299 423 78 59 .903   1916 6 6 Whitey Witt 563 138 16 15 2 64 36 55 71 2 6 19 .245 .315 .337 .652 56   8.9 1.0 9.9 .063 .007 .070 8.36 1916 6 6 Whitey Witt
         
1917 6 6 Whitey Witt     PHI 8 L 21   111 190 354 38 41 .935   1917 6 6 Whitey Witt 405 102 12 4 0 56 25 58 40 0 12 11 .252 .346 .301 .647 45   8.8 2.7 11.5 .079 .024 .104 10.59 1917 6 6 Whitey Witt
1917 12 Joe Dugan   R   PHI 8 R 20   39 58 108 15 12 .917   1917 12 Joe Dugan 127 25 8 0 0 9 15 3 15 3 7 0 .197 .233 .260 .493 6   - 0.7 0.7 .000 .018 .018 0.27 1917 12 Joe Dugan
         
1918 11 8 Joe Dugan     PHI 8 R 21 2B   86 212 282 37 46 .930   1918 11 8 Joe Dugan 295 57 8 2 2 19 24 11 39 2 12 3 .193 .227 .254 .481 15   - 3.0 3.0 .000 .035 .035 1.67 1918 11 8 Joe Dugan
1918 8 Red Shannon   R   PHI 8 B 21 2B   45 105 133 27 26 .898   1918 8 Red Shannon 143 34 4 3 0 15 10 27 33 2 5 3 .238 .366 .308 .674 19   3.6 1.2 4.8 .080 .027 .107 4.68 1918 8 Red Shannon
         
1919 9 7 Joe Dugan     PHI 8 R 22   98 228 295 40 39 .929   1919 9 7 Joe Dugan 365 99 16 2 1 24 28 10 28 5 8 8 .271 .300 .334 .634 34   2.7 2.6 5.3 .028 .027 .054 3.50 1919 9 7 Joe Dugan
         
Pos St All- Other Shortstop Fielding Statistics Pos St Batting Statistics as Shortstop Win Shares Pos St
Year Rank Rank Name HOF MVP Star Rookie GG SS Team Stdg Bats Age Pos Games PO Assts Err DP F Pct. Year Rank Rank Name At Bats Hits 2B 3B HR Runs RBI BB IBB SO HP SH SF SB CS GDP BA OBA SA OPS RC B WS F WS T WS BWS/G FWS/G TWS/G Adj WSQ Year Rank Rank Name
1920 12 8 Chick Galloway   R   PHI 8 R 23   84 184 252 34 22 .928   1920 12 8 Chick Galloway 275 55 8 3 0 26 17 20 20 1 13 2 2 .200 .257 .251 .508 18   - 2.2 2.2 .000 .026 .026 1.03 1920 12 8 Chick Galloway
1920 10 Joe Dugan     PHI 8 R 23 2B,3B   32 79 99 16 13 .918   1920 10 Joe Dugan 128 41 10 1 1 17 16 5 13 1 2 1 2 .320 .351 .438 .789 19   2.7 1.3 4.0 .084 .041 .125 4.10 1920 10 Joe Dugan
1920 11 Red Shannon     PHI 8 B 23   24 43 77 7 9 .945   1920 11 Red Shannon 88 15 1 1 0 4 3 4 12 0 3 1 1 .170 .207 .205 .412 2   0.3 0.6 0.9 .013 .025 .038 0.48 1920 11 Red Shannon
         
1921 9 8 Chick Galloway     PHI 8 R 24 3B   110 205 305 43 52 .922   1921 9 8 Chick Galloway 390 103 24 4 3 35 39 24 36 2 10 10 6 .264 .310 .369 .679 40   1.9 2.9 4.8 .017 .026 .044 3.03 1921 9 8 Chick Galloway
1921 11 Emmett McCann   R   PHI 8 R 19   32 55 94 8 12 .949   1921 11 Emmett McCann 112 25 4 0 0 11 11 3 4 0 3 1 1 .223 .243 .259 .502 6   - 1.0 1.0 .000 .031 .031 0.53 1921 11 Emmett McCann
         
1922 2 2 Chick Galloway 11     PHI 7 R 25   155 321 493 41 76 .952   1922 2 2 Chick Galloway 571 185 26 9 6 83 69 39 39 1 18 10 4 .324 .368 .433 .801 91   12.9 5.7 18.6 .083 .037 .120 20.14 1922 2 2 Chick Galloway
         
1923 5 5 Chick Galloway T8     PHI 6 R 26   134 285 408 41 73 .944   1923 5 5 Chick Galloway 504 140 18 9 2 64 62 37 30 0 15 12 10 .278 .327 .361 .688 59   6.5 6.7 13.2 .049 .050 .099 12.17 1923 5 5 Chick Galloway
1923 11 Jimmy Dykes     PHI 6 R 26 2B   20 38 48 4 9 .956   1923 11 Jimmy Dykes 67 17 5 0 1 8 7 6 6 1 3 1 1 .254 .324 .373 .697 8   0.8 0.9 1.7 .040 .045 .085 1.45 1923 11 Jimmy Dykes
         
1924 6 6 Chick Galloway T22     PHI 5 R 27   129 285 389 34 71 .952   1924 6 6 Chick Galloway 464 128 16 4 2 41 48 23 23 1 17 11 12 .276 .311 .341 .652 47   2.9 5.1 8.0 .022 .040 .062 6.05 1924 6 6 Chick Galloway
         
1925 5 5 Chick Galloway     PHI 2 R 28   148 296 431 35 89 .954   1925 5 5 Chick Galloway 481 116 11 4 3 52 71 59 28 0 24 16 9 .241 .324 .299 .623 49   1.9 7.5 9.4 .013 .051 .064 7.75 1925 5 5 Chick Galloway
         
1926 10 8 Chick Galloway     PHI 3 R 29   133 274 315 41 49 .935   1926 10 8 Chick Galloway 408 98 13 6 0 37 49 31 20 1 19 8 7 .240 .295 .301 .596 36   0.7 3.8 4.5 .005 .029 .034 2.44 1926 10 8 Chick Galloway
         
1927 5 5 Joe Boley   R   PHI 2 R 30   114 182 318 26 49 .951   1927 5 5 Joe Boley 370 115 18 8 1 49 52 26 14 3 16 8 5 .311 .361 .411 .772 55   8.0 4.3 12.3 .070 .038 .108 12.45 1927 5 5 Joe Boley
1927 12 Chick Galloway     PHI 2 R 30   61 115 150 15 20 .946   1927 12 Chick Galloway 181 48 10 4 0 25 22 18 9 0 6 1 3 .265 .332 .365 .697 22   2.3 2.4 4.7 .038 .039 .077 4.02 1927 12 Chick Galloway
         
1928 6 6 Joe Boley     PHI 2 R 31   132 244 320 30 51 .949   1928 6 6 Joe Boley 425 112 20 3 0 49 49 32 11 1 21 5 1 .264 .317 .325 .642 46   4.2 5.5 9.7 .032 .042 .073 8.03 1928 6 6 Joe Boley
1928 10 Jimmy Dykes     PHI 2 R 31 2B,3B   21 33 42 4 2 .949   1928 10 Jimmy Dykes 62 17 3 0 1 10 8 7 5 1 3 1 0 .274 .357 .371 .728 9   1.3 1.1 2.4 .062 .052 .114 2.48 1928 10 Jimmy Dykes
1928 15 Joe Hassler   R   PHI 2 R 23   28 26 32 8 5 .879   1928 15 Joe Hassler 34 9 2 0 0 5 3 2 4 0 4 0 1 .265 .306 .324 .630 3   - - - .000 .000 .000 - 1928 15 Joe Hassler
         
1929 7 5 Joe Boley     PHI 1 R 32   88 161 229 15 50 .963   1929 7 5 Joe Boley 300 75 17 6 2 36 46 24 16 2 7 1 0 .250 .310 .367 .677 37   3.7 4.0 7.7 .042 .045 .088 7.03 1929 7 5 Joe Boley
1929 3 Jimmy Dykes     PHI 1 R 32 3B   60 119 151 21 27 .928   1929 3 Jimmy Dykes 206 67 17 3 7 39 41 26 13 4 9 4 2 .325 .411 .539 .950 46   8.6 2.5 11.1 .143 .042 .185 14.73 1929 3 Jimmy Dykes
         
1930 4 4 Joe Boley     PHI 1 R 33   120 221 296 16 62 .970   1930 4 4 Joe Boley 420 116 22 2 4 41 55 32 26 5 8 0 0 .276 .335 .367 .702 56   6.2 5.3 11.5 .052 .044 .096 10.17 1930 4 4 Joe Boley
1930 14 Eric McNair   R   PHI 1 R 21 3B   31 57 61 11 10 .915   1930 14 Eric McNair 111 30 6 1 0 13 16 4 9 0 1 2 1 .270 .296 .342 .638 11   0.6 1.0 1.6 .019 .032 .052 1.04 1930 14 Eric McNair
         
1931 4 4 Dib Williams     PHI 1 R 21   72 152 214 27 59 .931   1931 4 4 Dib Williams 255 69 10 2 5 36 35 16 18 0 2 2 0 .271 .314 .384 .698 32   3.8 4.3 8.1 .053 .060 .113 7.56 1931 4 4 Dib Williams
1931 10 Joe Boley     PHI 1 R 34   62 102 149 12 31 .954   1931 10 Joe Boley 220 50 9 3 0 26 20 15 13 2 3 1 1 .227 .283 .295 .578 19   0.2 3.0 3.2 .003 .048 .052 2.02 1931 10 Joe Boley
         
1932 3 3 Eric McNair T24     PHI 2 R 23   133 242 391 31 89 .953   1932 3 3 Eric McNair 554 158 47 3 18 87 95 28 29 3 6 8 4 .285 .323 .478 .801 88   11.0 5.4 16.4 .083 .041 .123 16.32 1932 3 3 Eric McNair
         
1933 5 5 Dib Williams   PHI 3 R 23 2B   84 199 243 38 34 .921   1933 5 5 Dib Williams 254 73 12 3 7 32 45 20 22 1 2 1 0 .287 .342 .441 .783 39   6.3 2.0 8.3 .075 .024 .099 7.05 1933 5 5 Dib Williams
1933 7 Eric McNair   PHI 3 R 24 2B   46 113 143 9 29 .966   1933 7 Eric McNair 195 51 9 3 4 36 30 9 20 2 1 1 1 .262 .301 .400 .701 24   2.8 1.4 4.2 .061 .030 .091 3.43 1933 7 Eric McNair
1933 15 Ed Cihocki R   PHI 3 R 26   28 44 69 12 17 .904   1933 15 Ed Cihocki 91 13 2 3 0 6 8 7 15 0 2 0 0 .143 .204 .231 .435 3   - 0.7 0.7 .000 .025 .025 0.30 1933 15 Ed Cihocki
       
1934 6 6 Eric McNair   PHI 5 R 25   151 305 489 41 109 .951   1934 6 6 Eric McNair 599 168 20 4 17 80 82 35 42 1 8 7 8 .280 .321 .412 .733 75   8.0 6.1 14.1 .053 .040 .093 12.57 1934 6 6 Eric McNair
       
1935 9 8 Eric McNair   PHI 8 R 26   121 232 346 27 78 .955   1935 9 8 Eric McNair 475 128 20 2 4 50 51 32 30 3 8 3 6 .269 .320 .345 .665 49   3.2 3.7 6.9 .026 .031 .057 4.71 1935 9 8 Eric McNair
1935 13 Skeeter Newsome R   PHI 8 R 24   24 56 75 6 20 .956   1935 13 Skeeter Newsome 83 17 4 1 1 10 6 3 5 0 1 1 1 .205 .233 .313 .546 5   - 0.8 0.8 .000 .033 .033 0.42 1935 13 Skeeter Newsome
       
Pos St All- Other Shortstop Fielding Statistics Pos St Batting Statistics as Shortstop Win Shares Pos St
Year Rank Rank Name HOF MVP Star Rookie GG SS Team Stdg Bats Age Pos Games PO Assts Err DP F Pct. Year Rank Rank Name At Bats Hits 2B 3B HR Runs RBI BB IBB SO HP SH SF SB CS GDP BA OBA SA OPS RC B WS F WS T WS BWS/G FWS/G TWS/G Adj WSQ Year Rank Rank Name
1936 10 8 Skeeter Newsome   PHI 8 R 25   123 273 417 31 87 .957   1936 10 8 Skeeter Newsome 456 103 15 2 0 40 45 24 26 1 11 13 4 .226 .266 .268 .534 33   - 6.2 6.2 .000 .050 .050 3.87 1936 10 8 Skeeter Newsome
1936 12 Rusty Peters R   PHI 8 R 21   25 44 53 11 12 .898   1936 12 Rusty Peters 78 17 2 1 2 8 11 3 18 0 0 1 1 .218 .247 .346 .593 7   - 0.8 0.8 .000 .032 .032 0.40 1936 12 Rusty Peters
       
1937 7 7 Skeeter Newsome   PHI 7 R 26   122 256 408 32 76 .954   1937 7 7 Skeeter Newsome 438 111 22 1 1 53 30 37 22 0 14 11 5 .253 .312 .315 .627 43   1.7 5.7 7.4 .014 .047 .061 4.89 1937 7 7 Skeeter Newsome
       
1938 8 8 Wayne Ambler   PHI 8 R 22   116 209 310 32 54 .942   1938 8 8 Wayne Ambler 380 89 20 2 0 41 37 46 30 0 11 2 1 .234 .317 .297 .614 38   1.1 2.7 3.8 .009 .023 .033 1.87 1938 8 8 Wayne Ambler
1938 11 Ace Parker R   PHI 8 R 26   26 29 40 2 6 .972   1938 11 Ace Parker 67 15 3 0 0 7 7 6 9 0 3 1 1 .224 .288 .269 .557 5   - 0.5 0.5 .000 .019 .019 0.19 1938 11 Ace Parker
       
1939 12 8 Skeeter Newsome   PHI 7 R 28   93 176 221 21 44 .950   1939 12 8 Skeeter Newsome 243 54 9 1 0 22 17 19 12 0 15 5 7 8 .222 .279 .267 .546 15   - 2.6 2.6 .000 .028 .028 1.30 1939 12 8 Skeeter Newsome
1939 14 Wayne Ambler   PHI 7 R 23   77 126 184 15 31 .954   1939 14 Wayne Ambler 182 39 10 0 0 12 19 18 20 0 11 1 0 8 .214 .285 .269 .554 12   - 1.9 1.9 .000 .025 .025 0.89 1939 14 Wayne Ambler
       
1940 12 8 Al Brancato R   PHI 8 R 21 3B   80 136 180 17 35 .949   1940 12 8 Al Brancato 227 43 8 2 1 32 18 21 27 2 2 2 1 8 .189 .264 .256 .520 14   - 1.9 1.9 .000 .024 .024 0.79 1940 12 8 Al Brancato
1940 9 Bill Lillard R   PHI 8 R 22   69 112 157 23 28 .921   1940 9 Bill Lillard 203 48 8 2 1 26 21 28 28 1 6 0 1 3 .236 .332 .310 .642 23   1.9 1.2 3.1 .028 .017 .045 1.78 1940 9 Bill Lillard
1940 13 Fred Chapman R   PHI 8 R 23   25 40 54 15 12 .862   1940 13 Fred Chapman 69 11 1 0 0 6 4 6 10 0 4 1 1 2 .159 .227 .174 .401 1   - 0.3 0.3 .000 .012 .012 0.09 1940 13 Fred Chapman
       
1941 7 7 Al Brancato   PHI 8 R 22   139 263 395 61 80 .915   1941 7 7 Al Brancato 505 118 19 9 2 57 47 56 47 0 5 1 5 10 .234 .310 .319 .629 50   3.6 4.0 7.6 .026 .029 .055 4.58 1941 7 7 Al Brancato
1941 14 Fred Chapman R   PHI 8 R 24   28 22 55 7 7 .917   1941 14 Fred Chapman 62 10 1 0 0 1 4 4 14 0 0 1 2 1 .161 .212 .177 .389 1   - 0.5 0.5 .000 .018 .018 0.17 1941 14 Fred Chapman
       
1942 7 7 Pete Suder   PHI 8 R 26 2B,3B   69 141 193 16 31 .954   1942 7 7 Pete Suder 245 63 10 2 2 24 28 12 20 1 5 2 2 10 .257 .295 .339 .634 22   2.1 2.3 4.4 .030 .033 .064 2.98 1942 7 7 Pete Suder
1942 8 Jack Wallaesa R   PHI 8 B 22   36 62 76 12 16 .920   1942 8 Jack Wallaesa 117 30 4 1 2 13 13 8 26 2 0 0 1 1 .256 .315 .359 .674 13   2.4 0.6 3.0 .067 .017 .083 2.32 1942 8 Jack Wallaesa
1942 10 Eric McNair   PHI 8 R 33   29 50 68 6 10 .952   1942 10 Eric McNair 100 24 2 0 0 8 4 11 5 0 0 1 0 2 .240 .315 .260 .575 7   0.7 0.6 1.3 .024 .021 .045 0.71 1942 10 Eric McNair
1942 14 Crash Davis   PHI 8 R 22 2B   26 44 68 9 11 .926   1942 14 Crash Davis 82 18 2 0 1 9 8 6 9 0 2 0 0 2 .220 .273 .280 .553 7   0.3 0.6 0.9 .012 .023 .035 0.45 1942 14 Crash Davis
       
1943 6 6 Irv Hall R   PHI 8 R 24   148 298 435 40 91 .948   1943 6 6 Irv Hall 537 137 15 4 0 37 53 22 41 6 10 10 7 11 .255 .292 .298 .590 49   5.7 4.7 10.4 .039 .032 .070 6.95 1943 6 6 Irv Hall
       
1944 7 7 Ed Busch R   PHI T5 R 26 2B   111 204 330 34 50 .940   1944 7 7 Ed Busch 378 102 9 2 0 32 31 23 13 1 7 4 2 16 .270 .313 .304 .617 32   2.8 3.9 6.7 .025 .035 .060 4.51 1944 7 7 Ed Busch
1944 11 Irv Hall   PHI T5 R 25 2B   40 86 132 15 29 .936   1944 11 Irv Hall 159 43 6 2 0 17 13 9 13 1 2 1 1 4 .270 .314 .333 .647 15   1.8 1.8 3.6 .045 .045 .090 2.96 1944 11 Irv Hall
       
1945 8 7 Ed Busch   PHI 8 R 27   116 209 370 29 67 .952   1945 8 7 Ed Busch 399 100 10 3 0 35 34 31 9 1 9 2 3 12 .251 .306 .291 .597 32   2.6 3.6 6.2 .022 .031 .053 3.94 1945 8 7 Ed Busch
1945 11 Bobby Wilkins R   PHI 8 R 22   40 74 118 16 23 .923   1945 11 Bobby Wilkins 140 36 5 0 0 20 4 9 15 0 1 2 4 5 .257 .302 .293 .595 10   0.7 1.1 1.8 .018 .028 .045 1.05 1945 11 Bobby Wilkins
       
1946 8 8 Pete Suder   PHI 8 R 30 3B   67 151 204 15 39 .959   1946 8 8 Pete Suder 261 73 11 2 1 22 29 10 21 0 6 1 1 7 .280 .306 .349 .655 25   2.3 2.0 4.3 .034 .030 .064 2.79 1946 8 8 Pete Suder
1946 14 Jack Wallaesa   PHI 8 B 26   59 111 130 22 31 .916   1946 14 Jack Wallaesa 194 38 4 2 5 16 11 14 47 0 2 1 0 2 .196 .250 .314 .564 14   0.3 0.9 1.2 .005 .015 .020 0.44 1946 14 Jack Wallaesa
1946 13 Jake Caulfield R   PHI 8 R 28   31 49 55 8 13 .929   1946 13 Jake Caulfield 91 25 8 0 0 13 10 4 11 0 0 0 0 2 .275 .305 .363 .668 9   0.9 0.4 1.3 .029 .013 .042 0.68 1946 13 Jake Caulfield
       
1947 6 6 Eddie Joost T11   PHI 5 R 31   151 370 452 38 100 .956   1947 6 6 Eddie Joost 540 111 22 3 13 76 64 114 110 4 24 6 6 5 .206 .348 .330 .678 73   11.1 6.4 17.5 .074 .042 .116 15.60 1947 6 6 Eddie Joost
       
1948 2 2 Eddie Joost 10   PHI 4 R 32   135 325 409 20 115 .973   1948 2 2 Eddie Joost 509 127 22 2 16 99 55 119 87 1 8 2 4 4 .250 .393 .395 .788 94   17.9 8.0 25.9 .133 .059 .192 29.03 1948 2 2 Eddie Joost
       
1949 1 1 Eddie Joost 13 A   PHI 5 R 33   144 352 442 25 126 .969   1949 1 1 Eddie Joost 525 138 25 3 23 128 81 149 80 4 4 2 1 6 .263 .429 .453 .882 117   26.4 8.7 35.1 .183 .060 .244 44.12 1949 1 1 Eddie Joost
       
1950 5 5 Eddie Joost   PHI 8 R 34   131 241 389 29 117 .956   1950 5 5 Eddie Joost 476 111 12 3 18 79 58 103 68 3 10 5 1 11 .233 .373 .384 .757 73   9.6 3.9 13.5 .073 .030 .103 11.68 1950 5 5 Eddie Joost
       
1951 1 1 Eddie Joost 14   PHI 6 R 35   140 325 422 20 115 .974   1951 1 1 Eddie Joost 553 160 28 5 19 107 78 106 70 6 2 10 8 6 .289 .409 .461 .870 110   19.6 5.0 24.6 .140 .036 .176 29.29 1951 1 1 Eddie Joost
       
1952 1 1 Eddie Joost 15 a   PHI 4 R 36   146 278 431 28 81 .962   1952 1 1 Eddie Joost 540 132 26 3 20 94 75 122 94 5 2 5 8 6 .244 .388 .415 .803 97   21.1 5.2 26.3 .145 .036 .180 32.76 1952 1 1 Eddie Joost
       
Pos St All- Other Shortstop Fielding Statistics Pos St Batting Statistics as Shortstop Win Shares Pos St
Year Rank Rank Name HOF MVP Star Rookie GG SS Team Stdg Bats Age Pos Games PO Assts Err DP F Pct. Year Rank Rank Name At Bats Hits 2B 3B HR Runs RBI BB IBB SO HP SH SF SB CS GDP BA OBA SA OPS RC B WS F WS T WS BWS/G FWS/G TWS/G Adj WSQ Year Rank Rank Name
1953 10 8 Joe DeMaestri   PHI 7 R 24   108 191 297 18 53 .964   1953 10 8 Joe DeMaestri 420 107 17 3 6 53 35 24 39 1 7 0 1 15 .255 .297 .352 .649 39   2.3 2.5 4.8 .021 .023 .044 3.02 1953 10 8 Joe DeMaestri
1953 9 Eddie Joost   PHI 7 R 37   51 102 147 11 33 .958   1953 9 Eddie Joost 177 44 6 0 6 39 15 45 24 0 2 3 2 1 .249 .401 .384 .785 31   5.0 1.3 6.3 .098 .025 .124 6.60 1953 9 Eddie Joost
       
1954 8 7 Joe DeMaestri     PHI 8 R 25   142 285 406 25 90 .965   1954 8 7 Joe DeMaestri 533 122 16 3 8 49 37 20 0 62 3 3 7 1 4 10 .229 .258 .315 .573 39   0.7 4.4 5.1 .005 .031 .036 3.08 1954 8 7 Joe DeMaestri
         
1955 9 8 Joe DeMaestri   KC 6 R 26   122 206 358 21 78 .964   1955 9 8 Joe DeMaestri 456 113 14 1 6 42 36 20 1 47 3 4 2 3 5 12 .248 .283 .322 .605 38   1.5 2.8 4.3 .012 .023 .035 2.67 1955 9 8 Joe DeMaestri
1955 18 Jerry Schypinski R   KC 6 L 23   21 22 46 5 10 .932   1955 18 Jerry Schypinski 62 14 2 0 0 6 5 1 0 5 0 0 0 0 0 2 .226 .238 .258 .496 3   - - - .000 .000 .000 - 1955 18 Jerry Schypinski
1955 17 Jack Littrell R   KC 6 R 26   22 30 42 4 8 .947   1955 17 Jack Littrell 46 10 0 1 0 4 1 3 0 6 0 1 0 0 0 1 .217 .265 .261 .526 3   - 0.3 0.3 .000 .014 .014 0.12 1955 17 Jack Littrell
       
1956 8 7 Joe DeMaestri   KC 8 R 27   132 210 407 23 95 .964   1956 8 7 Joe DeMaestri 427 99 16 1 6 40 38 25 2 72 3 3 3 3 3 8 .232 .277 .316 .593 36   0.9 4.9 5.8 .007 .037 .044 3.67 1956 8 7 Joe DeMaestri
1956 12 Mike Baxes R   KC 8 R 25   62 56 112 10 17 .944   1956 12 Mike Baxes 97 23 2 1 1 6 4 17 1 13 0 4 0 0 1 2 .237 .351 .309 .660 11   0.9 1.2 2.1 .015 .019 .034 1.17 1956 12 Mike Baxes
       
1957 6 6 Joe DeMaestri a   KC 7 R 28   134 248 387 13 87 .980   1957 6 6 Joe DeMaestri 459 113 14 6 9 44 33 22 1 82 2 3 4 6 1 14 .246 .281 .362 .643 42   3.6 5.0 8.6 .027 .037 .064 6.73 1957 6 6 Joe DeMaestri
1957 15 Billy Hunter   KC 7 R 29 2B   35 46 89 9 19 .938   1957 15 Billy Hunter 85 17 3 1 3 8 10 8 1 10 0 2 3 1 0 1 .200 .260 .365 .625 9   0.3 1.0 1.3 .009 .029 .037 0.78 1957 15 Billy Hunter
       
1958 6 6 Joe DeMaestri   KC 7 R 29   137 226 417 13 95 .980   1958 6 6 Joe DeMaestri 440 96 11 1 6 32 38 16 1 84 1 5 3 1 0 13 .218 .246 .289 .535 28   - 5.9 5.9 .000 .043 .043 4.30 1958 6 6 Joe DeMaestri
1958 9 Chico Carrasquel   KC 7 R 32 3B   22 24 45 2 6 .972   1958 9 Chico Carrasquel 60 8 1 0 1 5 2 8 0 6 0 0 0 0 2 2 .133 .235 .200 .435 4   0.5 0.5 1.0 .023 .023 .045 0.74 1958 9 Chico Carrasquel
       
1959 5 5 Joe DeMaestri   KC 7 R 30   115 167 320 22 63 .957   1959 5 5 Joe DeMaestri 350 86 16 5 6 31 34 28 8 65 4 0 3 1 0 12 .246 .306 .371 .677 37   4.3 4.2 8.5 .037 .037 .074 7.60 1959 5 5 Joe DeMaestri
1959 11 Jerry Lumpe   KC 7 L 26 2B   56 85 148 8 39 .967   1959 11 Jerry Lumpe 188 52 7 3 0 23 14 16 0 10 0 3 0 0 1 6 .277 .333 .346 .679 22   2.1 2.0 4.1 .038 .036 .073 3.64 1959 11 Jerry Lumpe
       
1960 13 8 Ken Hamlin R   KC 8 R 25   139 195 341 25 61 .955   1960 13 8 Ken Hamlin 427 95 10 2 2 51 24 44 1 48 1 8 2 1 1 13 .222 .295 .269 .564 34   1.1 1.7 2.8 .008 .012 .020 1.17 1960 13 8 Ken Hamlin
1960 14 Bob Johnson R   KC 8 R 24 2B   30 23 48 4 10 .947   1960 14 Bob Johnson 49 9 0 0 0 3 1 3 0 9 1 0 0 0 0 3 .184 .245 .184 .429 2   - 0.7 0.7 .000 .023 .023 0.32 1960 14 Bob Johnson
       
1961 3 3 Dick Howser a-3B(2) R-2   KC T9 R 25   157 299 427 38 85 .950   1961 3 3 Dick Howser 610 171 29 6 3 108 45 91 0 38 5 8 3 37 9 8 .280 .377 .362 .739 94   15.2 3.2 18.4 .097 .020 .117 18.84 1961 3 3 Dick Howser
       
1962 11 9 Dick Howser   KC 9 R 26   72 138 191 13 37 .962   1962 11 9 Dick Howser 286 68 8 3 6 53 34 38 0 8 1 9 3 19 2 5 .238 .326 .350 .676 37   4.7 1.7 6.4 .065 .024 .089 5.69 1962 11 9 Dick Howser
1962 12 Wayne Causey   KC 9 L 25 3B   51 108 137 12 22 .953   1962 12 Wayne Causey 178 48 11 0 2 21 19 20 1 11 0 1 2 0 0 4 .270 .340 .365 .705 23   2.8 1.6 4.4 .055 .031 .086 3.86 1962 12 Wayne Causey
1962 15 Billy Consolo   KC 9 R 27 SS   48 72 120 10 25 .950   1962 15 Billy Consolo 149 36 4 2 0 11 15 23 2 31 0 4 1 1 3 2 .242 .341 .295 .636 16   1.5 0.8 2.3 .031 .017 .048 1.49 1962 15 Billy Consolo
       
1963 2 2 Wayne Causey T21   KC 8 L 26   135 266 402 15 81 .978   1963 2 2 Wayne Causey 547 153 31 4 8 72 43 54 2 53 0 7 2 4 2 7 .280 .343 .395 .738 77   13.0 6.5 19.5 .096 .048 .144 21.21 1963 2 2 Wayne Causey
       
1964 7 7 Wayne Causey T25   KC 10 L 27   131 266 352 21 75 .967   1964 7 7 Wayne Causey 500 144 23 4 8 70 42 77 3 54 6 2 2 0 1 16 .288 .388 .398 .786 79   13.3 4.6 17.9 .102 .035 .137 17.62 1964 7 7 Wayne Causey
1964 12 Bert Campaneris R   KC 10 R 22 LF   38 58 94 3 14 .981   1964 12 Bert Campaneris 145 36 6 1 4 16 13 9 0 24 3 1 0 6 0 3 .248 .306 .386 .692 18   2.4 1.0 3.4 .063 .026 .089 2.71 1964 12 Bert Campaneris
       
1965 6 6 Bert Campaneris T29   KC 10 R 23 LF   109 187 269 30 50 .938   1965 6 6 Bert Campaneris 416 112 15 8 4 53 31 32 0 44 8 2 2 39 17 1 .269 .332 .373 .705 55   10.8 2.7 13.5 .099 .025 .124 13.53 1965 6 6 Bert Campaneris
1965 10 Wayne Causey   KC 10 L 28 2B,3B   62 111 162 8 34 .972   1965 10 Wayne Causey 235 60 8 2 1 22 11 24 4 27 0 5 1 1 0 3 .255 .323 .319 .642 26   4.9 1.8 6.7 .079 .029 .108 6.27 1965 10 Wayne Causey
       
1966 4 4 Bert Campaneris 10   KC 7 R 24   138 283 350 19 80 .971   1966 4 4 Bert Campaneris 573 153 29 10 5 82 42 25 1 72 5 1 2 52 10 6 .267 .302 .379 .681 70   15.3 5.1 20.4 .111 .037 .148 22.30 1966 4 4 Bert Campaneris
1966 17 Ossie Chavarria R   KC 7 R 25   23 29 50 4 15 .952   1966 17 Ossie Chavarria 61 13 4 0 1 9 3 6 1 16 0 0 0 1 1 3 .213 .284 .328 .612 5   0.8 0.7 1.5 .035 .030 .065 1.08 1966 17 Ossie Chavarria
       
1967 4 4 Bert Campaneris   KC 10 R 25   145 259 365 30 75 .954   1967 4 4 Bert Campaneris 600 149 29 6 3 85 32 36 2 82 7 3 2 55 16 3 .248 .298 .332 .630 64   11.3 4.6 15.9 .078 .032 .110 16.13 1967 4 4 Bert Campaneris
1967 17 Ted Kubiak R   KC 10 B 25   20 23 40 1 5 .984   1967 17 Ted Kubiak 57 7 1 0 0 3 1 3 0 8 0 1 1 0 0 2 .123 .164 .140 .304 1   - 0.4 0.4 .000 .020 .020 0.17 1967 17 Ted Kubiak
       
1968 1 1 Bert Campaneris 11 a   OAK 6 R 26   155 279 458 34 86 .956   1968 1 1 Bert Campaneris 630 174 24 9 4 86 38 48 2 67 4 8 3 62 22 5 .276 .330 .362 .692 80   20.2 8.6 28.8 .130 .055 .186 37.28 1968 1 1 Bert Campaneris
       
Pos St All- Other Shortstop Fielding Statistics Pos St Batting Statistics as Shortstop Win Shares Pos St
Year Rank Rank Name HOF MVP Star Rookie GG SS Team Stdg Bats Age Pos Games PO Assts Err DP F Pct. Year Rank Rank Name At Bats Hits 2B 3B HR Runs RBI BB IBB SO HP SH SF SB CS GDP BA OBA SA OPS RC B WS F WS T WS BWS/G FWS/G TWS/G Adj WSQ Year Rank Rank Name
1969 6 6 Bert Campaneris   OAK 2W R 27   125 220 391 21 72 .967   1969 6 6 Bert Campaneris 543 141 15 2 2 69 24 30 2 62 4 9 1 59 8 5 .260 .303 .306 .609 58   10.0 5.8 15.8 .080 .046 .126 15.43 1969 6 6 Bert Campaneris
1969 14 Ted Kubiak   OAK 2W B 27 2B   42 78 124 5 24 .976   1969 14 Ted Kubiak 174 42 5 0 0 21 11 11 0 21 1 2 1 0 0 6 .241 .289 .270 .559 13   1.7 2.0 3.7 .040 .048 .088 3.02 1969 14 Ted Kubiak
       
1970 2 2 Bert Campaneris 24   OAK 2W R 28   143 267 414 19 92 .973   1970 2 2 Bert Campaneris 598 166 28 4 22 98 63 35 1 71 4 3 4 42 10 5 .278 .320 .448 .768 90   18.4 7.7 26.1 .129 .054 .183 32.24 1970 2 2 Bert Campaneris
       
1971 4 4 Bert Campaneris   OAK 1W R 29   133 231 303 26 85 .954   1971 4 4 Bert Campaneris 568 142 18 4 5 80 47 29 1 64 2 3 6 34 7 7 .250 .286 .322 .608 56   9.5 5.3 14.8 .071 .040 .111 15.67 1971 4 4 Bert Campaneris
1971 19 Larry Brown   OAK 1W R 31 2B   31 40 76 5 19 .959   1971 19 Larry Brown 99 21 1 1 0 10 5 5 0 11 1 3 0 0 2 4 .212 .257 .242 .499 5   - 1.3 1.3 .000 .042 .042 0.85 1971 19 Larry Brown
       
1972 1 1 Bert Campaneris T16 a   OAK 1W R 30   148 283 494 18 93 .977   1972 1 1 Bert Campaneris 625 150 25 2 8 85 32 32 0 88 2 20 2 52 14 9 .240 .278 .325 .603 59   10.8 9.6 20.4 .073 .065 .138 24.73 1972 1 1 Bert Campaneris
       
1973 1 1 Bert Campaneris T26 A   OAK 1W R 31   149 228 496 23 87 .969   1973 1 1 Bert Campaneris 601 150 17 6 4 89 46 50 1 79 4 9 7 34 10 10 .250 .308 .318 .626 63   10.2 9.2 19.4 .068 .062 .130 24.76 1973 1 1 Bert Campaneris
1973 23 Ted Kubiak   OAK 1W B 31 2B   26 28 56 2 13 .977   1973 23 Ted Kubiak 55 13 2 1 0 6 4 3 0 5 0 0 0 0 1 0 .236 .276 .309 .585 5   0.5 0.8 1.3 .019 .031 .050 1.03 1973 23 Ted Kubiak
       
1974 1 1 Bert Campaneris 15 A   OAK 1W R 32   133 207 423 22 76 .966   1974 1 1 Bert Campaneris 524 153 18 8 2 78 41 47 2 81 0 11 2 34 13 6 .292 .349 .368 .717 71   14.1 7.2 21.3 .106 .054 .160 28.16 1974 1 1 Bert Campaneris
1974 22 Dal Maxvill   OAK 1W R 35 2B   29 23 62 2 14 .977   1974 22 Dal Maxvill 46 9 0 0 0 3 2 5 0 8 0 4 0 0 0 1 .196 .275 .196 .471 3   0.1 0.7 0.8 .003 .024 .028 0.44 1974 22 Dal Maxvill
       
1975 2 2 Bert Campaneris T21 A   OAK 1W R 33   137 199 378 23 58 .962   1975 2 2 Bert Campaneris 509 135 15 3 4 69 46 50 2 71 7 19 3 24 12 9 .265 .337 .330 .667 60   10.4 5.9 16.3 .076 .043 .119 18.53 1975 2 2 Bert Campaneris
1975 24 Ted Martinez   OAK 1W R 27 2B   45 32 53 4 9 .955   1975 24 Ted Martinez 63 8 0 0 0 3 0 1 0 6 1 5 0 1 0 0 .127 .154 .127 .281 2   - 0.8 0.8 .000 .018 .018 0.35 1975 24 Ted Martinez
1975 26 Dal Maxvill   OAK 1W R 36   20 8 13 1 1 .955   1975 26 Dal Maxvill 10 2 0 0 0 1 0 0 0 0 0 0 0 0 0 1 .200 .200 .200 .400 0   - 0.2 0.2 .000 .010 .010 0.06 1975 26 Dal Maxvill
       
1976 4 4 Bert Campaneris   OAK 2W R 34   149 231 490 23 66 .969   1976 4 4 Bert Campaneris 536 137 14 1 1 67 52 63 0 80 3 18 11 54 12 4 .256 .331 .291 .622 64   11.4 7.4 18.8 .077 .050 .126 20.83 1976 4 4 Bert Campaneris
1976 20 Tommy Sandt R   OAK 2W R 25   29 37 49 3 10 .966   1976 20 Tommy Sandt 55 13 0 0 0 5 2 6 0 9 0 0 0 0 0 1 .236 .311 .236 .547 4   - 0.8 0.8 .000 .028 .028 0.41 1976 20 Tommy Sandt
       
1977 14 11 Rob Picciolo R   OAK 7W R 24   148 213 381 21 70 .966   1977 14 11 Rob Picciolo 419 84 12 3 2 35 22 9 0 55 1 14 3 1 4 8 .200 .218 .258 .476 17   - 5.1 5.1 .000 .034 .034 3.23 1977 14 11 Rob Picciolo
1977 19 Rodney Scott R   OAK 7W B 23 2B   70 59 95 9 18 .945   1977 19 Rodney Scott 107 25 0 1 0 13 6 8 0 12 0 0 1 5 5 0 .234 .284 .252 .536 8   1.1 1.8 2.9 .016 .026 .041 2.01 1977 19 Rodney Scott
       
1978 6 6 Mario Guerrero   OAK 6W R 28   142 258 330 26 67 .958   1978 6 6 Mario Guerrero 503 139 18 4 3 27 38 15 2 35 6 17 3 0 5 13 .276 .304 .346 .650 47   5.8 5.5 11.3 .041 .039 .080 10.52 1978 6 6 Mario Guerrero
1978 29 Rob Picciolo   OAK 6W R 25   41 51 63 5 17 .958   1978 29 Rob Picciolo 71 17 1 0 1 7 5 1 0 9 0 3 0 1 1 1 .239 .250 .296 .546 5   - 0.8 0.8 .000 .020 .020 0.37 1978 29 Rob Picciolo
       
1979 18 12 Rob Picciolo   OAK 7W R 26   105 191 265 17 51 .964   1979 18 12 Rob Picciolo 316 78 15 2 1 34 23 3 1 43 1 9 0 2 1 8 .247 .256 .316 .572 24   1.2 2.1 3.3 .011 .020 .031 2.00 1979 18 12 Rob Picciolo
1979 27 Mario Guerrero   OAK 7W R 29   43 68 129 10 33 .952   1979 27 Mario Guerrero 163 38 5 0 0 12 18 6 0 6 0 3 2 0 1 5 .233 .257 .264 .521 9   - 1.0 1.0 .000 .023 .023 0.52 1979 27 Mario Guerrero
       
1980 22 13 Mario Guerrero OAK 2W R 30   116 184 276 18 50 .962   1980 22 13 Mario Guerrero 381 91 16 2 2 32 23 19 2 32 1 7 6 3 3 15 .239 .273 .307 .580 28   0.2 2.5 2.7 .002 .022 .023 1.30 1980 22 13 Mario Guerrero
1980 24 Rob Picciolo OAK 2W R 27 2B   49 76 94 4 20 .977   1980 24 Rob Picciolo 133 31 3 1 4 17 11 2 0 31 0 6 0 1 1 3 .233 .244 .361 .605 11   0.3 1.2 1.5 .006 .024 .031 0.83 1980 24 Rob Picciolo
     
1981 10 8 Rob Picciolo OAK 1W R 28   82 99 157 5 30 .981   1981 10 8 Rob Picciolo 179 48 5 3 4 23 13 5 0 22 1 9 1 0 1 6 .268 .290 .397 .687 19   3.2 2.6 5.8 .039 .032 .071 4.64 1981 10 8 Rob Picciolo
1981 17 Fred Stanley OAK 1W R 33   62 94 118 3 25 .986   1981 17 Fred Stanley 141 27 4 0 0 14 7 15 0 23 0 8 0 2 0 0 .191 .269 .220 .489 10   0.3 2.0 2.3 .005 .032 .037 1.34 1981 17 Fred Stanley
     
1982 20 13 Fred Stanley OAK 5W R 34   98 112 223 13 42 .963   1982 20 13 Fred Stanley 223 44 7 0 2 31 17 29 0 30 1 1 0 0 1 4 .197 .292 .256 .548 17   0.5 2.7 3.2 .005 .028 .033 1.74 1982 20 13 Fred Stanley
1982 16 Jimmy Sexton OAK 5W R 30   47 56 101 7 18 .957   1982 16 Jimmy Sexton 118 29 4 0 1 8 11 7 0 19 1 2 3 9 0 0 .246 .287 .305 .592 13   2.3 1.3 3.6 .049 .028 .077 3.01 1982 16 Jimmy Sexton
1982 21 Tony Phillips R OAK 5W B 23   39 46 95 7 17 .953   1982 21 Tony Phillips 81 17 2 2 0 11 8 12 0 26 2 5 0 2 3 0 .210 .326 .284 .610 8   1.0 1.1 2.1 .026 .028 .054 1.47 1982 21 Tony Phillips
     
1983 10 9 Tony Phillips R OAK 4W B 24 2B   101 112 257 23 59 .941   1983 10 9 Tony Phillips 262 57 3 1 3 29 21 27 1 46 1 6 3 8 3 3 .218 .290 .271 .561 23   3.6 3.0 6.6 .036 .030 .065 4.82 1983 10 9 Tony Phillips
1983 13 Donnie Hill R OAK 4W B 22   53 87 136 9 24 .961   1983 13 Donnie Hill 157 42 7 0 2 20 15 4 0 21 0 5 2 1 1 3 .268 .282 .350 .632 15   1.6 2.3 3.9 .030 .043 .074 3.02 1983 13 Donnie Hill
1983 18 Bill Almon OAK 4W R 30 1B,3B   52 51 93 9 14 .941   1983 18 Bill Almon 142 38 5 0 2 11 23 4 1 18 0 1 4 9 2 3 .268 .280 .345 .625 14   2.1 1.2 3.3 .040 .023 .063 2.37 1983 18 Bill Almon
     
Pos St All- Other Shortstop Fielding Statistics Pos St Batting Statistics as Shortstop Win Shares Pos St
Year Rank Rank Name HOF MVP Star Rookie GG SS Team Stdg Bats Age Pos Games PO Assts Err DP F Pct. Year Rank Rank Name At Bats Hits 2B 3B HR Runs RBI BB IBB SO HP SH SF SB CS GDP BA OBA SA OPS RC B WS F WS T WS BWS/G FWS/G TWS/G Adj WSQ Year Rank Rank Name
1984 9 9 Tony Phillips OAK 4W B 25 2B   91 133 235 23 54 .941   1984 9 9 Tony Phillips 252 65 11 1 2 40 18 25 0 45 0 5 2 8 2 3 .258 .323 .333 .656 29   5.3 2.3 7.6 .058 .025 .084 6.39 1984 9 9 Tony Phillips
1984 20 Donnie Hill OAK 4W B 23   66 99 125 12 28 .949   1984 20 Donnie Hill 163 38 6 0 2 20 14 5 0 11 0 4 2 1 1 3 .233 .253 .307 .560 12   0.2 1.8 2.0 .003 .027 .030 1.02 1984 20 Donnie Hill
1984 27 Mark Wagner OAK 4W R 30   57 53 63 6 14 .951   1984 27 Mark Wagner 57 12 4 1 0 4 10 4 0 4 0 4 1 1 0 4 .211 .258 .316 .574 4   0.2 1.1 1.3 .004 .019 .023 0.57 1984 27 Mark Wagner
     
1985 4 4 Alfredo Griffin G OAK T4W B 27   162 278 440 30 87 .960   1985 4 4 Alfredo Griffin 614 166 18 7 2 75 64 20 1 50 0 5 7 24 9 6 .270 .290 .332 .622 60   7.9 7.5 15.4 .049 .046 .095 15.48 1985 4 4 Alfredo Griffin
1985 25 Mike Gallego R OAK T4W R 24 2B   21 8 17 0 2 1.000   1985 25 Mike Gallego 13 3 2 0 0 0 4 1 0 1 0 0 1 0 0 0 .231 .267 .385 .652 2   0.3 0.3 0.6 .014 .014 .029 0.33 1985 25 Mike Gallego
     
1986 6 6 Alfredo Griffin OAK T3W B 28   162 282 421 25 85 .966   1986 6 6 Alfredo Griffin 594 169 23 6 4 74 51 35 6 52 2 12 6 33 16 5 .285 .323 .364 .687 71   11.7 4.7 16.4 .072 .029 .101 15.64 1986 6 6 Alfredo Griffin
     
1987 10 10 Alfredo Griffin OAK 3W B 29   137 245 386 24 72 .963   1987 10 10 Alfredo Griffin 491 129 23 5 3 66 60 28 2 40 4 10 3 25 13 9 .263 .306 .348 .654 51   5.4 5.2 10.6 .039 .038 .077 8.73 1987 10 10 Alfredo Griffin
     
1988 7 7 Walt Weiss R-1 OAK 1W B 24   147 254 431 15 83 .979   1988 7 7 Walt Weiss 451 113 17 3 3 44 39 35 1 56 9 8 7 4 4 9 .251 .313 .322 .635 45   5.4 9.7 15.1 .037 .066 .103 14.58 1988 7 7 Walt Weiss
1988 20 Mike Gallego OAK 1W R 27 2B   42 34 72 6 14 .946   1988 20 Mike Gallego 73 13 1 0 0 9 5 10 0 17 1 2 0 0 1 2 .178 .286 .192 .478 4   0.3 1.5 1.8 .007 .036 .043 1.12 1988 20 Mike Gallego
     
1989 9 8 Mike Gallego OAK 1W R 28 2B   94 152 255 14 68 .967   1989 9 8 Mike Gallego 253 58 9 1 3 35 24 26 0 29 5 6 2 3 2 4 .229 .311 .308 .619 26   3.3 5.3 8.6 .035 .056 .091 8.50 1989 9 8 Mike Gallego
1989 14 Walt Weiss OAK 1W B 25   84 106 195 15 44 .953   1989 14 Walt Weiss 236 55 11 0 3 30 21 20 0 39 1 5 0 2 1 5 .233 .296 .318 .614 22   3.0 3.5 6.5 .036 .042 .077 5.90 1989 14 Walt Weiss
     
1990 5 5 Walt Weiss OAK 1W B 26   137 194 373 12 77 .979   1990 5 5 Walt Weiss 442 117 17 1 2 48 35 46 5 53 4 6 4 8 3 6 .265 .337 .321 .658 46   7.5 7.2 14.7 .055 .053 .107 15.33 1990 5 5 Walt Weiss
1990 21 Mike Gallego OAK 1W R 29 2B,3B   38 43 86 3 26 .977   1990 21 Mike Gallego 98 22 2 0 2 11 11 10 0 12 4 5 1 4 0 2 .224 .319 .306 .625 11   - 2.1 2.1 .000 .055 .055 1.57 1990 21 Mike Gallego
     
1991 15 13 Mike Bordick R OAK 4W R 25   84 137 209 10 44 .972   1991 15 13 Mike Bordick 228 55 5 1 0 21 21 14 0 37 3 12 1 3 4 3 .241 .293 .272 .565 19   2.3 2.6 4.9 .027 .031 .058 3.81 1991 15 13 Mike Bordick
1991 22 Walt Weiss OAK 4W B 27   40 64 99 5 21 .970   1991 22 Walt Weiss 132 29 6 1 0 15 13 12 0 14 0 1 2 6 0 3 .220 .281 .280 .561 12   1.2 1.2 2.4 .030 .030 .060 1.89 1991 22 Walt Weiss
1991 16 Mike Gallego OAK 4W R 30 2B   55 40 76 5 21 .959   1991 16 Mike Gallego 98 22 0 1 2 8 6 13 3 15 0 3 1 1 2 4 .224 .313 .306 .619 9   1.7 2.0 3.7 .031 .036 .067 3.09 1991 16 Mike Gallego
1991 26 Ernest Riles OAK 4W L 30 3B   20 17 25 1 5 .977   1991 26 Ernest Riles 36 6 1 1 1 5 2 4 0 5 0 2 0 0 0 2 .167 .250 .333 .583 3   0.5 0.6 1.1 .025 .030 .055 0.83 1991 26 Ernest Riles
     
1992 20 13 Walt Weiss OAK 1W B 28   103 144 270 19 57 .956   1992 20 13 Walt Weiss 315 67 5 2 0 36 21 42 1 39 1 11 4 4 3 10 .213 .304 .241 .545 18   - 4.5 4.5 .000 .044 .044 3.02 1992 20 13 Walt Weiss
1992 5 Mike Bordick T21 OAK 1W R 26 2B   70 110 183 10 50 .967   1992 5 Mike Bordick 220 71 6 2 1 24 25 15 0 23 1 10 2 9 4 6 .323 .366 .382 .748 31   6.2 4.2 10.4 .089 .060 .149 12.87 1992 5 Mike Bordick
     
1993 7 6 Mike Bordick OAK 7W R 27   159 280 418 13 108 .982   1993 7 6 Mike Bordick 540 136 21 2 3 60 48 59 2 56 11 10 6 10 9 9 .252 .334 .315 .649 60   8.4 5.4 13.8 .053 .034 .087 12.96 1993 7 6 Mike Bordick
     
1994 8 8 Mike Bordick OAK 2W R 28   112 179 308 13 67 .974   1994 8 8 Mike Bordick 378 95 18 4 2 36 36 35 1 43 3 3 5 5 2 9 .251 .316 .336 .652 40   3.7 4.1 7.8 .033 .037 .070 6.62 1994 8 8 Mike Bordick
     
1995 5 5 Mike Bordick OAK 4W R 29   126 245 338 10 93 .983   1995 5 5 Mike Bordick 425 112 12 0 8 47 43 35 2 47 5 7 3 11 3 8 .264 .325 .348 .673 47   5.5 4.9 10.4 .044 .039 .083 9.48 1995 5 5 Mike Bordick
     
1996 10 9 Mike Bordick OAK 3W R 30   155 265 476 16 121 .979   1996 10 9 Mike Bordick 524 125 18 4 5 46 53 52 0 59 1 4 5 5 6 8 .239 .306 .317 .623 52   1.9 7.9 9.8 .012 .051 .063 7.30 1996 10 9 Mike Bordick
1996 21 Rafael Bournigal OAK 3W R 30 2B   23 13 33 0 6 1.000   1996 21 Rafael Bournigal 35 10 5 0 0 3 2 2 0 2 0 1 0 2 0 3 .286 .324 .429 .753 4   - 1.0 1.0 .000 .043 .043 0.61 1996 21 Rafael Bournigal
     
1997 15 13 Rafael Bournigal OAK 4W R 31   74 99 192 6 40 .980   1997 15 13 Rafael Bournigal 207 58 8 0 1 23 19 16 1 17 4 7 0 2 1 8 .280 .344 .333 .677 23   1.7 2.0 3.7 .023 .027 .050 2.60 1997 15 13 Rafael Bournigal
1997 20 Tony Batista OAK 4W R 23   61 91 169 8 38 .970   1997 20 Tony Batista 179 37 10 1 4 21 18 13 0 28 2 3 0 2 2 7 .207 .268 .341 .609 15   0.1 1.9 2.0 .002 .031 .033 1.14 1997 20 Tony Batista
1997 23 Miguel Tejada R OAK 4W R 21   26 54 68 4 18 .968   1997 23 Miguel Tejada 99 20 3 2 2 10 10 2 0 22 3 0 0 2 0 3 .202 .240 .333 .573 7   0.4 0.8 1.2 .015 .031 .046 0.81 1997 23 Miguel Tejada
1997 22 Scott Brosius OAK 4W R 30 3B   30 25 39 2 8 .970   1997 22 Scott Brosius 54 11 2 0 1 5 4 2 0 10 1 1 0 1 1 2 .204 .246 .296 .542 3   - 1.3 1.3 .000 .043 .043 0.85 1997 22 Scott Brosius
     
1998 11 10 Miguel Tejada R OAK 4W R 22   104 173 327 26 75 .951   1998 11 10 Miguel Tejada 365 85 20 1 11 53 45 28 0 86 7 4 3 5 6 8 .233 .298 .384 .682 40   3.3 4.1 7.4 .032 .039 .071 5.84 1998 11 10 Miguel Tejada
1998 24 Rafael Bournigal OAK 4W R 32 2B   38 53 89 0 18 1.000   1998 24 Rafael Bournigal 104 24 6 0 0 10 9 2 0 6 1 3 1 1 1 4 .231 .250 .288 .538 7   - 1.2 1.2 .000 .032 .032 0.63 1998 24 Rafael Bournigal
1998 18 Kurt Abbott OAK 4W R 29   28 40 70 11 16 .909   1998 18 Kurt Abbott 111 32 7 1 2 16 11 8 0 29 1 1 1 2 1 2 .288 .339 .423 .762 15   1.5 0.8 2.3 .054 .029 .082 1.95 1998 18 Kurt Abbott
     
Pos St All- Other Shortstop Fielding Statistics Pos St Batting Statistics as Shortstop Win Shares Pos St
Year Rank Rank Name HOF MVP Star Rookie GG SS Team Stdg Bats Age Pos Games PO Assts Err DP F Pct. Year Rank Rank Name At Bats Hits 2B 3B HR Runs RBI BB IBB SO HP SH SF SB CS GDP BA OBA SA OPS RC B WS F WS T WS BWS/G FWS/G TWS/G Adj WSQ Year Rank Rank Name
1999 6 6 Miguel Tejada OAK 2W R 23   159 292 471 21 110 .973   1999 6 6 Miguel Tejada 592 149 33 4 21 93 84 57 3 94 10 9 5 8 7 11 .252 .325 .427 .752 80   12.2 7.5 19.7 .077 .047 .124 18.45 1999 6 6 Miguel Tejada
     
2000 4 4 Miguel Tejada 16 OAK 1W R 24   160 233 501 21 115 .972   2000 4 4 Miguel Tejada 606 166 32 1 30 105 115 66 6 102 4 2 2 6 0 15 .274 .348 .479 .827 100   16.5 7.0 23.5 .103 .044 .147 24.15 2000 4 4 Miguel Tejada
     
2001 3 3 Miguel Tejada T19 OAK 2W R 25   162 257 472 20 93 .973   2001 3 3 Miguel Tejada 622 166 31 3 31 107 113 43 5 89 13 1 4 11 5 14 .267 .326 .476 .802 93   17.3 7.7 25.0 .107 .048 .154 27.09 2001 3 3 Miguel Tejada
     
2002 2 2 Miguel Tejada 1 a OAK 1W R 26   162 230 504 19 106 .975   2002 2 2 Miguel Tejada 661 204 30 0 34 108 131 38 3 84 11 0 4 7 2 21 .309 .354 .508 .862 114   25.1 6.8 31.9 .155 .042 .197 38.32 2002 2 2 Miguel Tejada
     
2003 2 2 Miguel Tejada 11 OAK 1W R 27   162 240 490 21 95 .972   2003 2 2 Miguel Tejada 636 177 42 0 27 98 106 53 7 65 6 0 8 10 0 12 .278 .336 .472 .808 100   18.7 7.0 25.7 .115 .043 .159 29.28 2003 2 2 Miguel Tejada
     
2004 9 9 Bobby Crosby R-1 OAK 2W R 24   151 242 505 19 107 .975   2004 9 9 Bobby Crosby 545 130 34 1 22 70 64 58 0 141 9 5 6 7 3 20 .239 .319 .426 .745 72   5.3 7.9 13.2 .035 .052 .087 11.07 2004 9 9 Bobby Crosby
     
2005 7 7 Bobby Crosby OAK 2W R 25   84 117 251 7 59 .981   2005 7 7 Bobby Crosby 333 92 25 4 9 66 38 35 0 54 1 1 1 0 0 10 .276 .346 .456 .802 52   7.3 5.2 12.5 .087 .062 .149 13.43 2005 7 7 Bobby Crosby
2005 11 Marco Scutaro OAK 2W R 29 2B   81 115 213 8 50 .976   2005 11 Marco Scutaro 255 62 17 2 7 33 27 27 0 35 0 4 0 5 1 5 .243 .316 .408 .724 34   3.8 4.4 8.2 .047 .054 .101 7.26 2005 11 Marco Scutaro
     
2006 13 12 Bobby Crosby OAK 1W R 26   95 145 268 12 59 .972   2006 13 12 Bobby Crosby 358 82 12 0 9 42 40 36 1 76 0 2 2 8 1 11 .229 .298 .338 .636 36   3.3 4.7 8.0 .035 .049 .084 6.59 2006 13 12 Bobby Crosby
2006 11 Marco Scutaro OAK 1W R 30 2B   69 87 168 9 38 .966   2006 11 Marco Scutaro 220 66 12 6 4 39 25 35 0 38 0 1 2 4 1 7 .300 .393 .464 .857 41   5.0 2.7 7.7 .072 .039 .112 7.30 2006 11 Marco Scutaro
     
2007 17 14 Bobby Crosby OAK 3W R 27   92 131 282 14 61 .967   2007 17 14 Bobby Crosby 349 79 16 0 8 40 31 23 1 62 2 0 0 10 2 11 .226 .278 .341 .619 32   0.1 3.5 3.6 .001 .038 .039 2.11 2007 17 14 Bobby Crosby
2007 15 Marco Scutaro OAK 3W R 31 3B   43 52 111 5 22 .970   2007 15 Marco Scutaro 146 36 6 0 1 21 12 14 1 16 1 1 1 1 1 6 .247 .315 .308 .623 14   1.8 1.3 3.1 .042 .030 .072 2.47 2007 15 Marco Scutaro
2007 14 Donnie Murphy R OAK 3W R 24   31 35 91 5 22 .962   2007 14 Donnie Murphy 111 26 8 0 6 20 21 10 0 32 2 1 1 1 0 3 .234 .306 .468 .774 15   2.5 1.0 3.5 .081 .032 .113 3.49 2007 14 Donnie Murphy
     
2008 10 9 Bobby Crosby OAK 3W R 28   145 202 383 17 99 .972   2008 10 9 Bobby Crosby 556 132 39 1 7 65 61 47 0 96 0 0 2 7 2 18 .237 .296 .349 .645 55   4.5 5.4 9.9 .031 .037 .068 7.94 2008 10 9 Bobby Crosby
     
2009 8 8 Orlando Cabrera OAK 4W R 34   101 156 273 14 63 .968   2009 8 8 Orlando Cabrera 414 116 23 0 4 41 41 25 1 39 0 5 4 11 4 13 .280 .318 .365 .683 46   5.2 3.9 9.1 .051 .039 .090 8.30 2009 8 8 Orlando Cabrera
2009 9 Cliff Pennington R OAK 4W B 25   60 90 181 8 41 .971   2009 9 Cliff Pennington 208 58 11 3 4 27 21 19 0 46 1 1 0 7 5 5 .279 .342 .418 .760 28   4.1 2.6 6.7 .068 .043 .112 6.80 2009 9 Cliff Pennington
     
2010 3 3 Cliff Pennington OAK 2W B 26   156 218 496 25 100 .966   2010 3 3 Cliff Pennington 506 127 26 8 6 64 46 49 0 94 3 12 3 28 5 7 .251 .319 .370 .689 65   10.5 9.1 19.6 .067 .058 .126 21.57 2010 3 3 Cliff Pennington
Copyright 2009-11 by Andre Lower
Sources:
All-Time Major League Handbook
Win Shares Digital Update
baseball-reference.com
ESPN Baseball Encyclopedia